createdAt,value
2022-08-07T00:02:40.479Z,54.10
2022-08-07T00:07:27.711Z,54.10
2022-08-07T00:12:59.816Z,54.26
2022-08-07T00:18:05.587Z,53.98
2022-08-07T00:23:09.875Z,54.14
2022-08-07T00:28:14.021Z,54.34
2022-08-07T00:33:19.614Z,54.13
2022-08-07T00:38:31.359Z,54.28
2022-08-07T00:44:01.340Z,54.05
2022-08-07T00:49:02.495Z,54.43
2022-08-07T00:54:07.415Z,54.24
2022-08-07T00:59:16.475Z,54.13
2022-08-07T01:04:24.831Z,54.18
2022-08-07T01:10:04.029Z,54.06
2022-08-07T01:15:00.788Z,54.22
2022-08-07T01:20:08.288Z,54.17
2022-08-07T01:25:54.667Z,54.14
2022-08-07T01:30:38.330Z,53.98
2022-08-07T01:35:53.784Z,54.08
2022-08-07T01:41:00.246Z,54.16
2022-08-07T01:46:04.635Z,54.02
2022-08-07T01:52:02.074Z,54.09
2022-08-07T01:56:38.045Z,54.02
2022-08-07T02:02:02.053Z,54.13
2022-08-07T02:07:08.518Z,54.13
2022-08-07T02:12:29.344Z,54.12
2022-08-07T02:17:35.708Z,54.18
2022-08-07T02:22:43.649Z,54.05
2022-08-07T02:27:52.199Z,54.24
2022-08-07T02:33:07.258Z,54.19
2022-08-07T02:38:15.680Z,54.21
2022-08-07T02:43:20.115Z,54.04
2022-08-07T02:48:25.665Z,54.25
2022-08-07T02:53:34.071Z,54.11
2022-08-07T02:58:47.021Z,54.28
2022-08-07T03:03:52.788Z,54.34
2022-08-07T03:09:01.489Z,54.19
2022-08-07T03:14:06.105Z,54.40
2022-08-07T03:19:11.115Z,54.26
2022-08-07T03:24:25.949Z,54.02
2022-08-07T03:29:36.622Z,54.04
2022-08-07T03:34:47.376Z,54.19
2022-08-07T03:40:16.175Z,54.31
2022-08-07T03:45:30.254Z,54.34
2022-08-07T03:50:35.657Z,54.08
2022-08-07T03:55:58.227Z,54.12
2022-08-07T04:01:07.409Z,54.18
2022-08-07T04:06:37.517Z,54.07
2022-08-07T04:12:25.824Z,54.18
2022-08-07T04:17:04.097Z,53.95
2022-08-07T04:22:28.627Z,54.09
2022-08-07T04:27:36.265Z,54.02
2022-08-07T04:32:48.494Z,54.09
2022-08-07T04:38:06.690Z,54.08
2022-08-07T04:43:12.047Z,53.93
2022-08-07T04:48:24.889Z,54.16
2022-08-07T04:54:01.675Z,53.90
2022-08-07T04:59:17.519Z,53.60
2022-08-07T05:04:32.508Z,53.25
2022-08-07T05:09:46.355Z,53.46
2022-08-07T05:15:04.160Z,53.22
2022-08-07T05:20:10.110Z,53.19
2022-08-07T05:25:25.345Z,53.46
2022-08-07T05:30:39.916Z,53.48
2022-08-07T05:35:44.508Z,53.10
2022-08-07T05:40:50.655Z,53.52
2022-08-07T05:45:56.598Z,53.40
2022-08-07T05:51:01.958Z,53.29
2022-08-07T05:56:09.458Z,53.47
2022-08-07T06:01:17.235Z,53.49
2022-08-07T06:06:23.467Z,53.60
2022-08-07T06:11:34.698Z,53.53
2022-08-07T06:16:39.877Z,53.43
2022-08-07T06:22:16.311Z,53.74
2022-08-07T06:27:09.168Z,53.32
2022-08-07T06:32:14.848Z,53.65
2022-08-07T06:37:21.104Z,53.33
2022-08-07T06:42:34.917Z,53.80
2022-08-07T06:47:48.228Z,53.53
2022-08-07T06:53:04.197Z,53.54
2022-08-07T06:58:10.816Z,53.73
2022-08-07T07:03:17.189Z,53.75
2022-08-07T07:08:26.711Z,53.63
2022-08-07T07:13:55.537Z,53.72
2022-08-07T07:18:58.289Z,53.65
2022-08-07T07:24:08.128Z,53.68
2022-08-07T07:29:55.757Z,53.53
2022-08-07T07:34:44.255Z,53.58
2022-08-07T07:39:54.545Z,53.67
2022-08-07T07:45:00.277Z,53.69
2022-08-07T07:50:31.275Z,53.47
2022-08-07T07:55:37.374Z,53.48
2022-08-07T08:00:54.096Z,53.59
2022-08-07T08:05:59.982Z,53.75
2022-08-07T08:11:04.636Z,53.68
2022-08-07T08:16:12.654Z,53.43
2022-08-07T08:22:00.613Z,53.62
2022-08-07T08:27:09.569Z,53.43
2022-08-07T08:32:18.397Z,53.51
2022-08-07T08:38:01.072Z,53.41
2022-08-07T08:42:56.799Z,53.46
2022-08-07T08:48:05.828Z,53.40
2022-08-07T08:53:20.099Z,53.14
2022-08-07T08:58:30.298Z,53.09
2022-08-07T09:03:49.314Z,53.25
2022-08-07T09:09:01.568Z,52.99
2022-08-07T09:14:12.156Z,53.16
2022-08-07T09:19:51.354Z,53.04
2022-08-07T09:24:58.869Z,52.67
2022-08-07T09:30:08.740Z,52.97
2022-08-07T09:36:04.306Z,52.67
2022-08-07T09:40:53.157Z,52.77
2022-08-07T09:47:54.991Z,52.91
2022-08-07T09:52:16.324Z,52.74
2022-08-07T09:57:22.267Z,52.74
2022-08-07T10:02:36.087Z,52.80
2022-08-07T10:07:52.965Z,53.00
2022-08-07T10:13:15.773Z,53.14
2022-08-07T10:18:39.807Z,52.94
2022-08-07T10:24:06.702Z,52.75
2022-08-07T10:29:30.408Z,52.59
2022-08-07T10:34:45.190Z,52.87
2022-08-07T10:40:05.530Z,53.04
2022-08-07T10:45:45.101Z,52.87
2022-08-07T10:50:50.397Z,52.92
2022-08-07T10:56:02.375Z,52.52
2022-08-07T11:01:17.341Z,52.73
2022-08-07T11:06:22.646Z,52.50
2022-08-07T11:11:35.783Z,52.45
2022-08-07T11:16:46.956Z,52.59
2022-08-07T11:21:58.729Z,52.30
2022-08-07T11:28:01.471Z,52.16
2022-08-07T11:32:53.659Z,52.08
2022-08-07T11:38:17.167Z,52.25
2022-08-07T11:43:41.227Z,52.04
2022-08-07T11:49:50.367Z,52.25
2022-08-07T11:54:32.118Z,52.42
2022-08-07T12:00:12.045Z,52.32
2022-08-07T12:05:15.059Z,51.87
2022-08-07T12:10:24.057Z,52.08
2022-08-07T12:15:46.702Z,52.25
2022-08-07T12:21:02.317Z,52.47
2022-08-07T12:26:29.027Z,52.28
2022-08-07T12:31:52.985Z,51.74
2022-08-07T12:37:08.193Z,52.20
2022-08-07T12:42:13.651Z,52.50
2022-08-07T12:47:27.057Z,52.59
2022-08-07T12:52:42.608Z,52.66
2022-08-07T12:58:00.646Z,52.63
2022-08-07T13:03:26.948Z,52.69
2022-08-07T13:08:42.916Z,52.52
2022-08-07T13:13:54.526Z,52.51
2022-08-07T13:19:18.195Z,52.06
2022-08-07T13:24:29.156Z,51.88
2022-08-07T13:29:42.529Z,51.94
2022-08-07T13:34:56.376Z,51.61
2022-08-07T13:40:36.702Z,51.92
2022-08-07T13:46:11.254Z,52.23
2022-08-07T13:51:01.345Z,51.98
2022-08-07T13:56:06.904Z,52.28
2022-08-07T14:01:21.882Z,52.17
2022-08-07T14:06:31.957Z,51.91
2022-08-07T14:11:53.866Z,52.28
2022-08-07T14:17:32.060Z,52.33
2022-08-07T14:22:34.655Z,52.37
2022-08-07T14:28:12.159Z,52.04
2022-08-07T14:33:05.788Z,52.16
2022-08-07T14:38:26.148Z,51.97
2022-08-07T14:49:55.991Z,51.85
2022-08-07T14:54:33.015Z,51.71
2022-08-07T15:05:20.314Z,51.83
2022-08-07T15:10:29.964Z,52.38
2022-08-07T15:15:54.227Z,52.34
2022-08-07T15:20:59.767Z,52.06
2022-08-07T15:26:09.487Z,52.32
2022-08-07T15:32:00.742Z,52.38
2022-08-07T15:37:04.118Z,52.00
2022-08-07T15:42:44.104Z,51.99
2022-08-07T15:48:00.927Z,51.93
2022-08-07T15:53:05.009Z,52.05
2022-08-07T15:58:20.945Z,51.77
2022-08-07T16:03:46.741Z,51.60
2022-08-07T16:08:52.108Z,51.66
2022-08-07T16:14:03.196Z,52.11
2022-08-07T16:19:42.309Z,52.21
2022-08-07T16:24:53.015Z,52.45
2022-08-07T16:30:29.530Z,52.40
2022-08-07T16:35:56.880Z,52.63
2022-08-07T16:41:14.725Z,52.51
2022-08-07T16:47:04.502Z,52.52
2022-08-07T16:52:51.418Z,52.65
2022-08-07T16:58:02.827Z,52.57
2022-08-07T17:03:17.297Z,52.35
2022-08-07T17:09:09.787Z,52.28
2022-08-07T17:14:18.978Z,52.07
2022-08-07T17:20:02.380Z,52.44
2022-08-07T17:25:05.058Z,52.47
2022-08-07T17:30:19.914Z,52.41
2022-08-07T17:35:50.503Z,52.49
2022-08-07T17:42:01.030Z,52.51
2022-08-07T17:46:34.278Z,52.68
2022-08-07T17:51:49.704Z,52.56
2022-08-07T17:57:18.482Z,52.64
2022-08-07T18:02:28.845Z,52.65
2022-08-07T18:07:43.528Z,52.81
2022-08-07T18:13:09.845Z,52.54
2022-08-07T18:18:46.955Z,52.90
2022-08-07T18:23:50.740Z,52.89
2022-08-07T18:30:04.203Z,52.65
2022-08-07T18:35:00.746Z,52.78
2022-08-07T18:40:18.584Z,52.75
2022-08-07T18:46:25.894Z,52.64
2022-08-07T18:51:17.695Z,52.63
2022-08-07T18:56:57.882Z,52.82
2022-08-07T19:02:18.324Z,52.59
2022-08-07T19:07:52.896Z,52.61
2022-08-07T19:13:10.364Z,52.60
2022-08-07T19:18:34.605Z,52.57
2022-08-07T19:23:58.558Z,52.75
2022-08-07T19:31:05.371Z,52.59
2022-08-07T19:34:34.074Z,52.44
2022-08-07T19:39:57.211Z,52.44
2022-08-07T19:45:08.526Z,52.49
2022-08-07T19:50:41.062Z,52.52
2022-08-07T19:55:56.944Z,52.57
2022-08-07T20:01:02.606Z,52.64
2022-08-07T20:06:28.604Z,52.64
2022-08-07T20:12:22.895Z,52.66
2022-08-07T20:17:06.957Z,52.43
2022-08-07T20:22:12.806Z,52.65
2022-08-07T20:27:22.249Z,52.64
2022-08-07T20:32:43.779Z,52.18
2022-08-07T20:37:58.299Z,52.05
2022-08-07T20:43:15.005Z,52.11
2022-08-07T20:48:33.977Z,52.23
2022-08-07T20:54:02.858Z,52.26
2022-08-07T20:59:05.636Z,52.22
2022-08-07T21:04:21.823Z,52.02
2022-08-07T21:09:51.857Z,52.39
2022-08-07T21:14:56.578Z,52.57
2022-08-07T21:20:06.069Z,52.62
2022-08-07T21:25:13.091Z,52.56
2022-08-07T21:30:18.349Z,52.57
2022-08-07T21:35:34.930Z,52.39
2022-08-07T21:40:56.247Z,52.24
2022-08-07T21:46:24.251Z,51.93
2022-08-07T21:51:51.469Z,51.92
2022-08-07T21:57:10.997Z,51.80
2022-08-07T22:02:41.136Z,51.84
2022-08-07T22:07:58.642Z,51.75
2022-08-07T22:13:09.426Z,51.87
2022-08-07T22:18:16.578Z,51.98
2022-08-07T22:23:23.747Z,52.17
2022-08-07T22:28:32.737Z,52.32
2022-08-07T22:33:56.204Z,52.21
2022-08-07T22:39:05.882Z,52.37
2022-08-07T22:44:14.031Z,52.53
2022-08-07T22:49:39.277Z,52.44
2022-08-07T22:55:14.750Z,52.47
2022-08-07T23:00:28.259Z,52.34
2022-08-07T23:06:07.352Z,52.70
2022-08-07T23:11:16.751Z,52.30
2022-08-07T23:16:44.614Z,52.20
2022-08-07T23:21:56.697Z,52.16
2022-08-07T23:27:10.792Z,52.16
2022-08-07T23:34:22.387Z,52.33
2022-08-07T23:38:01.824Z,52.26
2022-08-07T23:43:22.491Z,52.15
2022-08-07T23:48:36.658Z,52.03
2022-08-07T23:53:49.560Z,51.98
2022-08-07T23:58:59.926Z,52.01
